Time;durP1;ratioP1;P1;durP2;ratioP2;P2;SDS_P1;SDS_P2;PMS_P1;PMS_P2;Temp;Humidity;BMP_temperature;BMP_pressure;BME280_temperature;BME280_humidity;BME280_pressure;Samples;Min_cycle;Max_cycle;Signal;HPM_P1;HPM_P2
2024/03/23 00:00:26;;;;;;;24.73;3.67;;;;;;;5.34;100.00;100213.53;4996657;28;20445;-87
2024/03/23 00:02:57;;;;;;;21.27;3.28;;;;;;;5.35;100.00;100212.47;4997732;28;20430;-89
2024/03/23 00:05:31;;;;;;;22.15;3.42;;;;;;;5.33;100.00;100203.81;5014428;28;20425;-86
2024/03/23 00:08:01;;;;;;;23.30;3.97;;;;;;;5.32;100.00;100209.44;4998315;28;20447;-85
2024/03/23 00:10:35;;;;;;;20.07;3.60;;;;;;;5.41;100.00;100207.91;5013666;28;20440;-87
2024/03/23 00:13:05;;;;;;;24.50;3.80;;;;;;;5.32;100.00;100196.78;4991697;28;20504;-89
2024/03/23 00:15:37;;;;;;;27.90;4.65;;;;;;;5.35;100.00;100193.56;4994651;28;20447;-86
2024/03/23 00:18:08;;;;;;;24.10;3.83;;;;;;;5.36;100.00;100186.28;4997161;28;20451;-90
2024/03/23 00:20:39;;;;;;;22.80;3.83;;;;;;;5.31;100.00;100188.97;4995608;28;20449;-88
2024/03/23 00:23:09;;;;;;;23.95;4.13;;;;;;;5.26;100.00;100173.53;5001687;28;20430;-89
2024/03/23 00:25:41;;;;;;;27.48;4.28;;;;;;;5.27;100.00;100178.69;5015359;28;20826;-88
2024/03/23 00:28:11;;;;;;;23.23;3.93;;;;;;;5.23;100.00;100168.66;4992110;28;20437;-90
2024/03/23 00:30:43;;;;;;;26.83;3.95;;;;;;;5.21;100.00;100184.28;4994943;28;20443;-88
2024/03/23 00:33:13;;;;;;;26.10;3.88;;;;;;;5.21;100.00;100170.81;5006767;28;20909;-90
2024/03/23 00:35:44;;;;;;;25.95;3.53;;;;;;;5.28;100.00;100166.00;4998457;28;20474;-90
2024/03/23 00:38:15;;;;;;;21.13;4.03;;;;;;;5.23;100.00;100168.66;5001498;28;20436;-87
2024/03/23 00:40:47;;;;;;;25.30;4.15;;;;;;;5.21;100.00;100165.41;5013287;28;20423;-90
2024/03/23 00:43:17;;;;;;;29.70;4.43;;;;;;;5.21;100.00;100165.41;4998753;28;20439;-89
2024/03/23 00:45:49;;;;;;;29.65;3.70;;;;;;;5.22;100.00;100157.06;5022559;28;20447;-90
2024/03/23 00:48:19;;;;;;;30.75;3.95;;;;;;;5.29;100.00;100156.84;5009138;28;20801;-90
2024/03/23 00:50:50;;;;;;;21.90;3.22;;;;;;;5.19;100.00;100156.75;4990655;28;20437;-87
2024/03/23 00:53:20;;;;;;;24.60;3.60;;;;;;;5.10;100.00;100148.31;5010127;28;20430;-92
2024/03/23 00:55:48;;;;;;;21.77;3.92;;;;;;;5.11;100.00;100156.16;5008670;28;20430;-91
2024/03/23 00:58:14;;;;;;;27.05;3.72;;;;;;;5.05;100.00;100150.97;4995204;28;20896;-85
2024/03/23 01:00:42;;;;;;;22.77;3.50;;;;;;;4.99;100.00;100135.81;4999069;28;20476;-88
2024/03/23 01:03:09;;;;;;;22.95;3.38;;;;;;;5.08;100.00;100145.88;5007338;28;20433;-89
2024/03/23 01:05:37;;;;;;;28.83;4.00;;;;;;;5.05;100.00;100142.88;5009196;28;20444;-86
2024/03/23 01:08:04;;;;;;;23.02;3.90;;;;;;;4.98;100.00;100147.66;5006729;28;20418;-91
2024/03/23 01:10:33;;;;;;;27.77;3.53;;;;;;;4.91;100.00;100131.69;5019339;28;20440;-87
2024/03/23 01:13:00;;;;;;;23.67;3.72;;;;;;;4.92;100.00;100127.94;5007405;28;20417;-89
2024/03/23 01:15:27;;;;;;;25.25;3.50;;;;;;;4.88;100.00;100118.72;5003252;28;20418;-91
2024/03/23 01:17:55;;;;;;;22.02;4.03;;;;;;;4.92;100.00;100119.84;5009105;28;20429;-89
2024/03/23 01:20:22;;;;;;;23.88;3.35;;;;;;;4.90;100.00;100121.97;4992814;28;20796;-90
2024/03/23 01:22:49;;;;;;;29.97;3.93;;;;;;;4.88;100.00;100116.81;4992106;28;20447;-90
2024/03/23 01:25:16;;;;;;;31.43;4.13;;;;;;;4.70;100.00;100103.72;5007860;28;20486;-89
2024/03/23 01:27:45;;;;;;;24.17;3.78;;;;;;;4.81;100.00;100101.94;5022529;28;20432;-86
2024/03/23 01:30:13;;;;;;;28.70;3.80;;;;;;;4.86;100.00;100118.16;4991405;28;20426;-90
2024/03/23 01:32:41;;;;;;;25.48;3.38;;;;;;;4.80;100.00;100108.41;5013844;28;20465;-86
2024/03/23 01:35:08;;;;;;;23.50;3.50;;;;;;;4.64;100.00;100093.94;5002695;28;20436;-91
2024/03/23 01:37:36;;;;;;;23.67;3.80;;;;;;;4.63;100.00;100100.41;4997847;28;20503;-86
2024/03/23 01:40:04;;;;;;;27.50;3.97;;;;;;;4.62;100.00;100101.50;4998905;28;20417;-90
2024/03/23 01:42:32;;;;;;;23.37;3.40;;;;;;;4.59;100.00;100092.03;5010095;28;20551;-85
2024/03/23 01:45:00;;;;;;;24.15;3.25;;;;;;;4.57;100.00;100077.97;5016148;28;20440;-91
2024/03/23 01:47:28;;;;;;;20.25;3.05;;;;;;;4.49;100.00;100079.28;4999376;28;21146;-91
2024/03/23 01:49:55;;;;;;;25.58;3.50;;;;;;;4.48;100.00;100077.63;4995460;28;20429;-86
2024/03/23 01:52:22;;;;;;;22.90;3.58;;;;;;;4.49;100.00;100070.34;5013138;28;20425;-89
2024/03/23 01:54:49;;;;;;;25.73;3.75;;;;;;;4.58;100.00;100063.44;5026907;28;20432;-86
2024/03/23 01:57:18;;;;;;;26.27;3.83;;;;;;;4.54;100.00;100065.84;4992089;28;20437;-91
2024/03/23 01:59:45;;;;;;;27.75;3.60;;;;;;;4.47;100.00;100050.94;4997746;28;20455;-87
2024/03/23 02:02:17;;;;;;;23.90;3.67;;;;;;;4.53;100.00;100047.22;5000707;28;20420;-87
2024/03/23 02:04:44;;;;;;;20.98;3.33;;;;;;;4.55;100.00;100051.28;4999730;28;20432;-91
2024/03/23 02:07:12;;;;;;;24.55;3.72;;;;;;;4.53;100.00;100055.31;5015508;28;20417;-89
2024/03/23 02:09:39;;;;;;;25.08;3.97;;;;;;;4.41;100.00;100042.81;4998014;28;20789;-90
2024/03/23 02:12:07;;;;;;;23.77;3.80;;;;;;;4.39;100.00;100041.44;4993243;28;20920;-89
2024/03/23 02:14:35;;;;;;;22.23;3.47;;;;;;;4.32;100.00;100028.16;4999368;28;20436;-86
2024/03/23 02:17:03;;;;;;;22.73;3.60;;;;;;;4.34;100.00;100039.50;5015669;28;20432;-91
2024/03/23 02:19:31;;;;;;;23.02;3.80;;;;;;;4.31;100.00;100034.63;5017452;28;20920;-88
2024/03/23 02:21:59;;;;;;;27.13;3.92;;;;;;;4.37;100.00;100030.09;5008780;28;20427;-88
2024/03/23 02:24:29;;;;;;;29.60;4.32;;;;;;;4.35;100.00;100032.22;5022411;28;20421;-91
2024/03/23 02:26:57;;;;;;;28.00;4.40;;;;;;;4.26;100.00;100019.22;5007187;28;20427;-89
2024/03/23 02:29:24;;;;;;;27.40;3.92;;;;;;;4.38;100.00;100020.97;5004519;28;20433;-87
2024/03/23 02:31:52;;;;;;;29.80;3.92;;;;;;;4.36;100.00;100031.97;5005728;28;20438;-90
2024/03/23 02:34:20;;;;;;;24.75;3.83;;;;;;;4.38;100.00;100026.34;5023574;28;20413;-87
2024/03/23 02:36:48;;;;;;;27.60;3.83;;;;;;;4.32;100.00;100016.59;5009142;28;20879;-86
2024/03/23 02:39:15;;;;;;;28.77;3.83;;;;;;;4.26;100.00;100016.53;5021847;28;20415;-89
2024/03/23 02:41:44;;;;;;;28.70;4.10;;;;;;;4.25;100.00;100014.09;5006885;28;20437;-85
2024/03/23 02:44:11;;;;;;;25.90;3.87;;;;;;;4.17;100.00;100011.84;5010030;28;20426;-86
2024/03/23 02:46:39;;;;;;;26.95;3.95;;;;;;;4.14;100.00;100006.97;5012840;28;20432;-89
2024/03/23 02:49:08;;;;;;;20.77;3.83;;;;;;;4.19;100.00;100007.84;5019395;28;20428;-88
2024/03/23 02:51:35;;;;;;;30.55;4.43;;;;;;;4.10;100.00;100003.97;5004794;28;20926;-85
2024/03/23 02:54:04;;;;;;;25.10;3.95;;;;;;;4.09;100.00;100007.75;5020007;28;20428;-87
2024/03/23 02:56:32;;;;;;;32.25;4.10;;;;;;;4.21;100.00;100005.72;5005520;28;20432;-86
2024/03/23 02:59:02;;;;;;;24.58;3.88;;;;;;;4.15;100.00;100005.91;4999536;28;20451;-89
2024/03/23 03:01:29;;;;;;;23.93;3.63;;;;;;;4.07;100.00;99999.94;5009126;28;20442;-87
2024/03/23 03:03:57;;;;;;;25.67;3.92;;;;;;;4.03;100.00;99993.41;5036343;28;20428;-88
2024/03/23 03:06:25;;;;;;;21.98;3.90;;;;;;;4.06;100.00;99998.28;5020392;28;20443;-88
2024/03/23 03:08:53;;;;;;;25.83;3.80;;;;;;;3.96;100.00;99990.09;5014021;28;20438;-91
2024/03/23 03:11:20;;;;;;;29.98;4.30;;;;;;;4.02;100.00;99999.88;5002590;28;20420;-90
2024/03/23 03:13:49;;;;;;;25.20;4.30;;;;;;;4.08;100.00;99998.03;5010458;28;20443;-89
2024/03/23 03:16:20;;;;;;;26.42;3.90;;;;;;;3.99;100.00;99986.91;5005288;28;20487;-90
2024/03/23 03:18:48;;;;;;;22.90;3.63;;;;;;;3.99;100.00;99995.00;5020449;28;20408;-87
2024/03/23 03:21:16;;;;;;;27.40;4.22;;;;;;;3.97;100.00;99996.31;5009448;28;20417;-89
2024/03/23 03:23:44;;;;;;;22.48;3.63;;;;;;;3.97;100.00;99985.53;4999097;28;20426;-89
2024/03/23 03:26:13;;;;;;;23.57;3.47;;;;;;;3.91;100.00;99982.78;5004862;28;20428;-88
2024/03/23 03:28:41;;;;;;;34.30;4.90;;;;;;;3.78;100.00;99976.97;5009490;28;20805;-88
2024/03/23 03:31:08;;;;;;;22.25;4.03;;;;;;;3.91;100.00;99979.28;5020300;28;21271;-89
2024/03/23 03:33:37;;;;;;;28.40;4.45;;;;;;;3.84;100.00;99974.09;4997616;28;20428;-85
2024/03/23 03:36:05;;;;;;;22.08;3.75;;;;;;;3.81;100.00;99960.31;4999689;28;20432;-85
2024/03/23 03:38:35;;;;;;;24.47;4.47;;;;;;;3.82;100.00;99968.13;5006967;28;20429;-86
2024/03/23 03:41:02;;;;;;;19.50;3.60;;;;;;;3.80;100.00;99964.91;5007287;28;20408;-88
2024/03/23 03:43:30;;;;;;;30.10;4.25;;;;;;;3.83;100.00;99963.59;5007943;28;20437;-87
2024/03/23 03:45:59;;;;;;;26.65;4.32;;;;;;;3.82;100.00;99962.75;4997565;28;20430;-91
2024/03/23 03:48:27;;;;;;;21.73;3.90;;;;;;;3.74;100.00;99958.66;5012283;28;20457;-87
2024/03/23 03:50:55;;;;;;;29.70;4.07;;;;;;;3.81;100.00;99952.25;5033898;28;20421;-89
2024/03/23 03:53:23;;;;;;;21.45;3.95;;;;;;;3.70;100.00;99944.06;4998998;28;20457;-88
2024/03/23 03:55:50;;;;;;;26.88;4.70;;;;;;;3.71;100.00;99948.38;5016024;28;20434;-89
2024/03/23 03:58:18;;;;;;;28.90;4.38;;;;;;;3.75;100.00;99946.78;5018664;28;20432;-89
2024/03/23 04:00:45;;;;;;;22.87;4.60;;;;;;;3.72;100.00;99938.44;5005572;28;20441;-91
2024/03/23 04:03:13;;;;;;;25.52;4.30;;;;;;;3.64;100.00;99930.81;4999123;28;20442;-85
2024/03/23 04:05:40;;;;;;;24.88;3.92;;;;;;;3.73;100.00;99924.72;5018724;28;20443;-86
2024/03/23 04:08:10;;;;;;;25.27;3.90;;;;;;;3.68;100.00;99934.63;5018489;28;20419;-88
2024/03/23 04:10:37;;;;;;;24.92;4.00;;;;;;;3.67;100.00;99938.38;4999173;28;20433;-89
2024/03/23 04:13:05;;;;;;;20.15;3.95;;;;;;;3.62;100.00;99928.38;5014465;28;20794;-85
2024/03/23 04:15:34;;;;;;;28.13;4.25;;;;;;;3.63;100.00;99929.97;5007992;28;20435;-86
2024/03/23 04:18:02;;;;;;;31.20;4.97;;;;;;;3.60;100.00;99927.78;5021661;28;20430;-87
2024/03/23 04:20:29;;;;;;;27.87;4.40;;;;;;;3.52;100.00;99915.63;5026586;28;20504;-86
2024/03/23 04:23:01;;;;;;;33.40;5.33;;;;;;;3.55;100.00;99917.81;5002466;28;20415;-86
2024/03/23 04:25:29;;;;;;;20.10;4.20;;;;;;;3.49;100.00;99912.59;5007021;28;20434;-86
2024/03/23 04:27:57;;;;;;;29.30;4.65;;;;;;;3.59;100.00;99918.13;5005971;28;20408;-87
2024/03/23 04:30:25;;;;;;;23.70;4.33;;;;;;;3.49;100.00;99910.72;5011762;28;20758;-85
2024/03/23 04:32:52;;;;;;;21.53;4.07;;;;;;;3.55;100.00;99920.50;5018897;28;20422;-86
2024/03/23 04:35:22;;;;;;;24.02;4.50;;;;;;;3.51;100.00;99919.38;5021302;28;20413;-85
2024/03/23 04:37:50;;;;;;;27.88;4.65;;;;;;;3.54;100.00;99905.41;5005011;28;20417;-85
2024/03/23 04:40:19;;;;;;;34.00;5.05;;;;;;;3.54;100.00;99897.34;5012185;28;20436;-86
2024/03/23 04:42:48;;;;;;;20.70;4.55;;;;;;;3.54;100.00;99901.91;5023099;28;20436;-85
2024/03/23 04:45:16;;;;;;;26.83;4.90;;;;;;;3.60;100.00;99902.78;5005823;28;20441;-86
2024/03/23 04:47:44;;;;;;;28.45;5.38;;;;;;;3.75;100.00;99892.16;5028453;28;20443;-85
2024/03/23 04:50:15;;;;;;;28.02;4.97;;;;;;;3.63;100.00;99896.88;5019752;28;20474;-88
2024/03/23 04:52:43;;;;;;;28.15;5.60;;;;;;;3.58;100.00;99892.28;5023391;28;20402;-86
2024/03/23 04:55:11;;;;;;;23.07;4.80;;;;;;;3.57;100.00;99899.50;5004959;28;20499;-86
2024/03/23 04:57:39;;;;;;;29.42;5.45;;;;;;;3.71;100.00;99907.19;5002979;28;20436;-87
2024/03/23 05:00:17;;;;;;;25.02;4.78;;;;;;;3.51;100.00;99900.53;5004541;28;20440;-85
2024/03/23 05:02:46;;;;;;;24.77;5.07;;;;;;;3.52;100.00;99899.47;5058437;23;20428;-89
2024/03/23 05:05:12;;;;;;;33.00;5.45;;;;;;;3.50;100.00;99892.72;5027797;28;20435;-90
2024/03/23 05:07:41;;;;;;;31.15;5.32;;;;;;;3.53;100.00;99913.72;5029791;28;20430;-90
2024/03/23 05:10:10;;;;;;;27.30;5.15;;;;;;;3.69;100.00;99914.72;5024375;28;20420;-90
2024/03/23 05:12:38;;;;;;;32.23;5.13;;;;;;;3.63;100.00;99910.34;5014115;28;20806;-89
2024/03/23 05:15:06;;;;;;;25.73;4.97;;;;;;;3.63;100.00;99903.06;5024574;28;20422;-89
2024/03/23 05:17:36;;;;;;;27.05;5.18;;;;;;;3.55;100.00;99887.41;5020758;28;20502;-88
2024/03/23 05:20:03;;;;;;;25.63;5.20;;;;;;;3.67;100.00;99898.81;5024815;28;20413;-88
2024/03/23 05:22:31;;;;;;;30.23;5.85;;;;;;;3.72;100.00;99906.94;5026425;28;20421;-89
2024/03/23 05:24:58;;;;;;;28.27;5.10;;;;;;;3.60;100.00;99875.88;5020408;28;20919;-89
2024/03/23 05:27:26;;;;;;;28.80;5.05;;;;;;;3.79;100.00;99898.66;5009016;28;20448;-88
2024/03/23 05:29:52;;;;;;;26.60;5.25;;;;;;;3.74;100.00;99899.44;5007448;28;20447;-89
2024/03/23 05:32:20;;;;;;;30.52;5.50;;;;;;;3.61;100.00;99885.56;5007428;28;20436;-89
2024/03/23 05:34:50;;;;;;;31.42;4.85;;;;;;;3.70;100.00;99881.34;5018349;28;20436;-88
2024/03/23 05:37:17;;;;;;;22.67;4.55;;;;;;;3.88;100.00;99899.00;5005521;28;20425;-90
2024/03/23 05:39:44;;;;;;;21.00;4.40;;;;;;;3.89;100.00;99896.09;5023422;28;20789;-91
2024/03/23 05:42:12;;;;;;;21.43;4.50;;;;;;;3.70;100.00;99867.91;5005679;28;20446;-91
2024/03/23 05:44:38;;;;;;;26.20;4.45;;;;;;;3.84;100.00;99896.03;5004597;28;20435;-90
2024/03/23 05:47:06;;;;;;;28.65;4.45;;;;;;;3.84;100.00;99895.22;5023681;28;20432;-87
2024/03/23 05:49:33;;;;;;;27.10;4.63;;;;;;;3.74;100.00;99877.91;5003924;28;20468;-88
2024/03/23 05:52:03;;;;;;;25.00;4.30;;;;;;;3.69;100.00;99871.66;5026514;28;20433;-89
2024/03/23 05:54:30;;;;;;;25.13;5.03;;;;;;;4.00;100.00;99896.19;5003299;28;20427;-88
2024/03/23 05:56:57;;;;;;;25.00;4.63;;;;;;;3.83;100.00;99872.88;5004971;28;20433;-90
2024/03/23 05:59:24;;;;;;;28.70;4.65;;;;;;;4.00;100.00;99888.09;5009531;28;20425;-89
2024/03/23 06:01:52;;;;;;;20.88;4.32;;;;;;;3.90;100.00;99867.28;5009011;28;20434;-90
2024/03/23 06:04:18;;;;;;;29.15;4.50;;;;;;;3.98;100.00;99869.50;5017792;28;20426;-89
2024/03/23 06:06:46;;;;;;;21.00;4.22;;;;;;;4.07;100.00;99867.97;5009127;28;20430;-90
2024/03/23 06:09:14;;;;;;;27.08;3.90;;;;;;;4.02;100.00;99842.88;5012639;28;20693;-91
2024/03/23 06:11:42;;;;;;;29.90;5.10;;;;;;;4.00;100.00;99845.81;5007223;28;20603;-89
2024/03/23 06:14:09;;;;;;;30.10;4.57;;;;;;;4.00;100.00;99836.94;5006880;28;20438;-89
2024/03/23 06:16:36;;;;;;;23.63;4.60;;;;;;;4.14;100.00;99866.94;5020575;28;20439;-89
2024/03/23 06:19:06;;;;;;;25.80;3.88;;;;;;;4.20;100.00;99849.78;5009501;28;20444;-90
2024/03/23 06:21:34;;;;;;;28.42;4.50;;;;;;;4.14;100.00;99866.94;5025076;28;20807;-88
2024/03/23 06:24:01;;;;;;;20.85;3.83;;;;;;;4.25;100.00;99863.25;5009414;28;20441;-90
2024/03/23 06:26:30;;;;;;;23.00;3.70;;;;;;;4.19;100.00;99856.22;5011446;28;20449;-91
2024/03/23 06:28:57;;;;;;;25.13;4.03;;;;;;;4.06;100.00;99830.53;5012178;28;21059;-89
2024/03/23 06:31:24;;;;;;;18.53;3.53;;;;;;;4.24;100.00;99854.38;5007376;28;20429;-88
2024/03/23 06:33:51;;;;;;;21.13;3.90;;;;;;;4.13;100.00;99835.69;5012124;28;20922;-90
2024/03/23 06:36:19;;;;;;;22.88;3.92;;;;;;;4.24;100.00;99857.06;5007414;28;20808;-90
2024/03/23 06:38:46;;;;;;;22.02;3.85;;;;;;;4.34;100.00;99855.53;5011565;28;20451;-90
2024/03/23 06:41:14;;;;;;;23.45;4.00;;;;;;;4.41;100.00;99862.31;5008631;28;20779;-90
2024/03/23 06:43:45;;;;;;;24.85;3.72;;;;;;;4.35;100.00;99857.13;5009508;28;20421;-90
2024/03/23 06:46:13;;;;;;;27.20;4.00;;;;;;;4.40;100.00;99859.88;5021155;28;20449;-90
2024/03/23 06:48:40;;;;;;;19.42;3.53;;;;;;;4.46;100.00;99849.94;5010610;28;20441;-89
2024/03/23 06:51:09;;;;;;;21.00;3.42;;;;;;;4.41;100.00;99838.06;5009958;28;20427;-90
2024/03/23 06:53:35;;;;;;;26.10;3.70;;;;;;;4.54;100.00;99852.97;5011479;28;20928;-90
2024/03/23 06:56:03;;;;;;;21.25;3.65;;;;;;;4.65;100.00;99853.81;5023480;28;20936;-90
2024/03/23 06:58:34;;;;;;;22.67;3.80;;;;;;;4.76;100.00;99854.69;5008637;28;20783;-90
2024/03/23 07:01:05;;;;;;;22.85;3.38;;;;;;;4.69;100.00;99829.88;5008673;28;20434;-89
2024/03/23 07:03:32;;;;;;;25.50;4.32;;;;;;;4.77;100.00;99834.75;5029440;28;20432;-89
2024/03/23 07:06:00;;;;;;;27.50;3.75;;;;;;;4.88;100.00;99830.25;5038092;28;20429;-89
2024/03/23 07:08:29;;;;;;;21.83;3.97;;;;;;;4.87;100.00;99845.59;5028097;28;20515;-90
2024/03/23 07:10:59;;;;;;;21.15;3.85;;;;;;;4.96;100.00;99839.69;5024147;28;20906;-88
2024/03/23 07:13:26;;;;;;;21.57;3.03;;;;;;;5.16;100.00;99838.97;5043206;28;20487;-89
2024/03/23 07:15:55;;;;;;;25.42;3.65;;;;;;;5.18;100.00;99847.59;5028603;28;20444;-89
2024/03/23 07:18:23;;;;;;;23.30;3.60;;;;;;;5.25;100.00;99838.19;5050152;28;20420;-88
2024/03/23 07:20:56;;;;;;;29.02;4.13;;;;;;;5.40;100.00;99825.81;5031580;28;20444;-90
2024/03/23 07:23:23;;;;;;;24.13;4.03;;;;;;;5.29;100.00;99827.69;5029255;28;20421;-90
2024/03/23 07:25:58;;;;;;;24.20;3.70;;;;;;;5.39;100.00;99849.28;5031407;28;20808;-88
2024/03/23 07:28:24;;;;;;;26.95;5.10;;;;;;;5.41;100.00;99843.63;5022364;28;21389;-91
2024/03/23 07:31:08;;;;;;;28.20;4.75;;;;;;;5.43;100.00;99839.59;5031571;28;20946;-89
2024/03/23 07:33:37;;;;;;;21.05;4.03;;;;;;;5.43;100.00;99839.59;5042339;28;20442;-89
2024/03/23 07:36:09;;;;;;;22.97;3.73;;;;;;;5.49;100.00;99837.72;5045484;28;20416;-91
2024/03/23 07:38:36;;;;;;;22.17;3.47;;;;;;;5.41;100.00;99839.06;5033218;28;20481;-91
2024/03/23 07:41:08;;;;;;;20.47;3.40;;;;;;;5.38;100.00;99836.06;5034079;28;20526;-92
2024/03/23 07:43:35;;;;;;;23.00;4.20;;;;;;;5.44;100.00;99825.03;5026960;28;20419;-90
2024/03/23 07:46:04;;;;;;;22.97;4.03;;;;;;;5.57;100.00;99829.09;5029505;28;20422;-90
2024/03/23 07:48:42;;;;;;;;;;;;;;;;;;;;;
2024/03/23 07:51:21;;;;;;;23.80;4.40;;;;;;;5.64;100.00;99799.16;5045037;28;20425;-90
2024/03/23 07:53:57;;;;;;;22.60;3.83;;;;;;;5.85;100.00;99823.47;5024877;28;20429;-91
2024/03/23 07:59:12;;;;;;;23.30;4.40;;;;;;;5.81;100.00;99811.59;5042170;28;20466;-88
2024/03/23 08:01:39;;;;;;;19.63;3.83;;;;;;;5.89;100.00;99821.84;5048993;28;21358;-88
2024/03/23 08:04:07;;;;;;;20.38;3.58;;;;;;;5.69;100.00;99803.72;5039134;28;20468;-89
2024/03/23 08:06:38;;;;;;;16.45;3.65;;;;;;;5.90;100.00;99818.88;5031470;28;20431;-89
2024/03/23 08:09:06;;;;;;;24.40;4.22;;;;;;;5.83;100.00;99795.91;5031731;28;20446;-87
2024/03/23 08:11:34;;;;;;;20.23;3.78;;;;;;;5.87;100.00;99813.19;5045508;28;20412;-88
2024/03/23 08:14:02;;;;;;;19.17;3.80;;;;;;;5.90;100.00;99816.16;5028771;28;20432;-89
2024/03/23 08:16:29;;;;;;;18.50;3.58;;;;;;;6.00;100.00;99820.78;5041785;28;20446;-87
2024/03/23 08:19:56;;;;;;;27.50;4.88;;;;;;;5.82;100.00;99800.50;5042782;28;20417;-88
2024/03/23 08:22:44;;;;;;;16.60;3.15;;;;;;;5.89;100.00;99792.13;5018509;28;20449;-85
2024/03/23 08:28:23;;;;;;;17.05;3.63;;;;;;;5.82;100.00;99789.72;5027609;28;20450;-87
2024/03/23 08:30:50;;;;;;;18.27;3.70;;;;;;;6.01;100.00;99805.38;5038995;28;20428;-88
2024/03/23 08:33:24;;;;;;;18.95;4.03;;;;;;;5.89;100.00;99778.63;5021218;28;20435;-90
2024/03/23 08:35:55;;;;;;;20.70;3.95;;;;;;;6.00;100.00;99793.78;5024511;28;20970;-89
2024/03/23 08:38:25;;;;;;;20.65;3.88;;;;;;;6.19;100.00;99809.44;5024891;28;20445;-88
2024/03/23 08:40:57;;;;;;;21.53;4.97;;;;;;;6.48;100.00;99815.06;5037375;28;20502;-87
2024/03/23 08:43:28;;;;;;;25.10;4.40;;;;;;;6.44;100.00;99805.88;5032583;28;20432;-87
2024/03/23 08:45:54;;;;;;;19.88;3.88;;;;;;;6.42;100.00;99794.53;5023323;28;20428;-88
2024/03/23 08:48:22;;;;;;;18.70;3.50;;;;;;;6.74;100.00;99805.00;5025513;28;20435;-89
2024/03/23 08:50:59;;;;;;;21.27;4.60;;;;;;;6.99;100.00;99816.81;5020781;28;20428;-90
2024/03/23 08:53:30;;;;;;;18.90;4.10;;;;;;;6.88;100.00;99799.00;5025487;28;20427;-88
2024/03/23 08:55:58;;;;;;;22.52;3.47;;;;;;;7.38;100.00;99794.41;5019278;28;21450;-90
2024/03/23 08:58:26;;;;;;;21.50;3.88;;;;;;;7.52;100.00;99791.09;5028211;28;20826;-90
2024/03/23 09:00:56;;;;;;;16.77;3.63;;;;;;;7.32;100.00;99780.09;5025393;28;21229;-90
2024/03/23 09:03:24;;;;;;;15.30;3.30;;;;;;;7.22;100.00;99792.88;5024544;28;20437;-87
2024/03/23 09:05:51;;;;;;;18.33;3.13;;;;;;;7.08;100.00;99796.19;5027949;28;20442;-87
2024/03/23 09:08:21;;;;;;;17.27;3.05;;;;;;;6.98;100.00;99769.19;5028639;28;20432;-87
2024/03/23 09:10:49;;;;;;;18.08;2.97;;;;;;;7.00;100.00;99794.06;5025921;28;21002;-89
2024/03/23 09:13:16;;;;;;;18.33;3.40;;;;;;;6.87;100.00;99770.34;5040656;28;20796;-88
2024/03/23 09:15:47;;;;;;;13.75;2.63;;;;;;;6.94;100.00;99785.16;5022586;28;20437;-86
2024/03/23 09:18:15;;;;;;;18.27;3.05;;;;;;;6.77;100.00;99782.81;5029456;28;20442;-88
2024/03/23 09:20:41;;;;;;;18.13;2.77;;;;;;;7.12;100.00;99791.84;5045453;28;20456;-87
2024/03/23 09:23:09;;;;;;;19.83;3.27;;;;;;;7.11;100.00;99792.13;5018597;28;20437;-86
2024/03/23 09:25:43;;;;;;;15.05;2.88;;;;;;;7.19;100.00;99774.50;5042256;28;20436;-86
2024/03/23 09:28:16;;;;;;;14.30;2.53;;;;;;;7.55;100.00;99785.09;5027799;28;20430;-88
2024/03/23 09:30:45;;;;;;;13.38;2.70;;;;;;;7.47;100.00;99771.06;5043559;28;20419;-90
2024/03/23 09:33:14;;;;;;;9.65;2.20;;;;;;;7.26;100.00;99792.03;5030874;28;20439;-87
2024/03/23 09:35:42;;;;;;;15.63;2.67;;;;;;;7.03;100.00;99784.59;5028585;28;20445;-90
2024/03/23 09:38:10;;;;;;;13.65;2.92;;;;;;;7.25;100.00;99786.91;5026114;28;20500;-87
2024/03/23 09:40:40;;;;;;;17.48;3.13;;;;;;;7.52;100.00;99772.94;5043807;28;20436;-89
2024/03/23 09:43:09;;;;;;;14.57;3.00;;;;;;;7.67;100.00;99766.59;5044848;28;20433;-88
2024/03/23 09:45:39;;;;;;;21.20;3.00;;;;;;;7.76;100.00;99758.66;5032243;28;20427;-87
2024/03/23 09:48:09;;;;;;;17.17;2.83;;;;;;;7.84;100.00;99766.19;5050307;28;20427;-88
2024/03/23 09:50:36;;;;;;;17.57;3.30;;;;;;;7.74;100.00;99769.00;5043324;28;20829;-87
2024/03/23 09:53:05;;;;;;;14.57;2.90;;;;;;;7.53;100.00;99769.13;5028980;28;20789;-88
2024/03/23 09:55:31;;;;;;;14.68;2.67;;;;;;;7.66;100.00;99756.84;5037569;28;20437;-90
2024/03/23 09:58:00;;;;;;;16.55;2.80;;;;;;;7.90;100.00;99766.94;5032347;28;20427;-89
2024/03/23 10:00:27;;;;;;;14.40;2.63;;;;;;;7.82;100.00;99754.84;5033684;28;21350;-89
2024/03/23 10:03:01;;;;;;;11.68;2.67;;;;;;;7.99;100.00;99757.91;5038854;28;21045;-87
2024/03/23 10:05:29;;;;;;;14.25;3.10;;;;;;;7.98;100.00;99739.22;5050962;28;20415;-88
2024/03/23 10:07:57;;;;;;;12.32;2.95;;;;;;;8.07;100.00;99731.31;5025655;28;20432;-89
2024/03/23 10:10:25;;;;;;;11.88;2.75;;;;;;;8.20;100.00;99710.84;5029451;28;20435;-87
2024/03/23 10:12:53;;;;;;;13.95;3.13;;;;;;;8.64;100.00;99715.25;5047126;28;20425;-87
2024/03/23 10:15:22;;;;;;;14.50;3.00;;;;;;;8.79;100.00;99725.88;5034769;28;20896;-88
2024/03/23 10:17:50;;;;;;;12.90;2.95;;;;;;;8.77;100.00;99708.28;5043657;28;20425;-85
2024/03/23 10:20:22;;;;;;;11.05;2.83;;;;;;;8.68;100.00;99725.22;5045531;28;20433;-89
2024/03/23 10:22:51;;;;;;;12.68;2.75;;;;;;;8.57;100.00;99725.66;5046930;28;20771;-90
2024/03/23 10:25:22;;;;;;;13.00;2.58;;;;;;;8.22;100.00;99730.34;5031062;28;20419;-87
2024/03/23 10:28:00;;;;;;;8.57;2.22;;;;;;;8.03;100.00;99731.06;5043081;28;20415;-88
2024/03/23 10:30:27;;;;;;;12.77;2.40;;;;;;;7.75;100.00;99732.69;5027714;28;20425;-89
2024/03/23 10:33:08;;;;;;;13.30;2.38;;;;;;;7.73;100.00;99741.06;5026583;28;20427;-88
2024/03/23 10:35:39;;;;;;;13.13;2.60;;;;;;;7.66;100.00;99721.66;5045972;28;20419;-88
2024/03/23 10:38:08;;;;;;;12.65;2.50;;;;;;;7.79;100.00;99747.28;5041726;28;20432;-87
2024/03/23 10:40:35;;;;;;;12.82;2.30;;;;;;;7.75;100.00;99714.53;5030689;28;20429;-88
2024/03/23 10:43:05;;;;;;;15.80;2.75;;;;;;;7.88;100.00;99718.47;5030503;28;20432;-88
2024/03/23 10:45:31;;;;;;;9.50;2.00;;;;;;;7.92;100.00;99719.50;5026114;28;20423;-87
2024/03/23 10:48:01;;;;;;;10.48;2.33;;;;;;;7.98;100.00;99695.88;5029554;28;20435;-87
2024/03/23 10:50:28;;;;;;;13.05;2.17;;;;;;;8.12;100.00;99704.13;5005952;28;20948;-90
2024/03/23 10:52:59;;;;;;;10.88;2.10;;;;;;;8.54;100.00;99720.81;5015206;28;20439;-88
2024/03/23 10:55:28;;;;;;;13.57;2.33;;;;;;;8.62;100.00;99687.63;5015565;28;20424;-87
2024/03/23 10:57:58;;;;;;;10.10;1.90;;;;;;;9.05;100.00;99720.13;5002735;28;20436;-90
2024/03/23 11:00:24;;;;;;;9.88;2.28;;;;;;;9.40;100.00;99690.03;4998470;28;20431;-88
2024/03/23 11:02:52;;;;;;;9.30;2.15;;;;;;;8.90;100.00;99674.22;5011407;28;22318;-90
2024/03/23 11:05:28;;;;;;;22.55;8.00;;;;;;;9.14;100.00;99721.09;4994978;28;20431;-90
2024/03/23 11:07:57;;;;;;;11.40;2.30;;;;;;;8.44;100.00;99710.84;5013989;28;20432;-89
2024/03/23 11:10:26;;;;;;;11.60;2.90;;;;;;;8.13;100.00;99719.31;5013787;28;20435;-89
2024/03/23 11:12:54;;;;;;;17.20;5.45;;;;;;;8.10;100.00;99709.84;5007775;28;20432;-88
2024/03/23 11:15:21;;;;;;;14.30;3.85;;;;;;;8.15;100.00;99720.66;5002379;28;20432;-90
2024/03/23 11:18:05;;;;;;;14.75;3.28;;;;;;;7.73;100.00;99692.31;4997485;28;20446;-87
2024/03/23 11:20:33;;;;;;;9.23;2.20;;;;;;;7.99;100.00;99708.34;5009888;28;20413;-86
2024/03/23 11:23:02;;;;;;;9.95;2.60;;;;;;;7.89;100.00;99711.97;4992661;28;20431;-90
2024/03/23 11:25:29;;;;;;;17.45;6.57;;;;;;;7.98;100.00;99709.44;5005638;28;20432;-89
2024/03/23 11:27:58;;;;;;;16.40;4.80;;;;;;;7.71;100.00;99704.56;5005040;28;20446;-89
2024/03/23 11:30:26;;;;;;;22.60;8.73;;;;;;;7.12;100.00;99716.06;5015167;28;20432;-87
2024/03/23 11:32:55;;;;;;;11.77;3.63;;;;;;;6.80;100.00;99714.63;5016866;28;20435;-89
2024/03/23 11:35:28;;;;;;;4.55;1.50;;;;;;;6.62;100.00;99707.97;4996628;28;20696;-88
2024/03/23 11:38:05;;;;;;;4.40;0.90;;;;;;;6.78;100.00;99716.81;5015549;28;21377;-89